Terminal Aerodrome Forecast
Issued by NWS

Home | Current Version | Previous Version | Text Only | Print | Product List | Glossary On
Versions: 1 2 3 4 5 6 7 8 9 10 11 12 13 14 15 16 17 18 19 20 21 22 23 24 25 26 27 28
000
FTUS41 KOKX 290544
TAFSWF
TAF
KSWF 290544Z 2906/3012 VRB03KT 6SM -SHRA SCT040 OVC060
     FM290900 36005KT 5SM -SHRA OVC050
     FM291100 06006KT 5SM -SHRA OVC050
     FM291300 06007KT 5SM -SHRA OVC050
     FM291500 03008KT 5SM -SHRA OVC070
     FM291800 04012G20KT P6SM BKN250
     FM292100 04008KT P6SM BKN250
     FM300000 04004KT P6SM BKN250
      AMD NOT SKED=

USA.gov is the U.S. government's official web portal to all federal, state and local government web resources and services.